sensor_id;sensor_type;location;lat;lon;timestamp;temperature;humidity
62339;DHT22;48368;53.406;6.214;2023-08-06T00:00:07;14.00;99.90
62339;DHT22;48368;53.406;6.214;2023-08-06T00:02:33;14.00;99.90
62339;DHT22;48368;53.406;6.214;2023-08-06T00:04:59;14.00;99.90
62339;DHT22;48368;53.406;6.214;2023-08-06T00:07:25;14.10;99.90
62339;DHT22;48368;53.406;6.214;2023-08-06T00:09:50;14.00;99.90
62339;DHT22;48368;53.406;6.214;2023-08-06T00:12:19;14.00;99.90
62339;DHT22;48368;53.406;6.214;2023-08-06T00:14:53;14.00;99.90
62339;DHT22;48368;53.406;6.214;2023-08-06T00:17:19;14.00;99.90
62339;DHT22;48368;53.406;6.214;2023-08-06T00:19:44;14.00;99.90
62339;DHT22;48368;53.406;6.214;2023-08-06T00:22:10;14.00;99.90
62339;DHT22;48368;53.406;6.214;2023-08-06T00:24:36;14.00;99.90
62339;DHT22;48368;53.406;6.214;2023-08-06T00:27:02;14.10;99.90
62339;DHT22;48368;53.406;6.214;2023-08-06T00:29:28;14.10;99.90
62339;DHT22;48368;53.406;6.214;2023-08-06T00:31:53;14.00;99.90
62339;DHT22;48368;53.406;6.214;2023-08-06T00:34:19;14.00;99.90
62339;DHT22;48368;53.406;6.214;2023-08-06T00:36:45;14.00;99.90
62339;DHT22;48368;53.406;6.214;2023-08-06T00:39:10;14.00;99.90
62339;DHT22;48368;53.406;6.214;2023-08-06T00:41:36;14.00;99.90
62339;DHT22;48368;53.406;6.214;2023-08-06T00:44:02;14.00;99.90
62339;DHT22;48368;53.406;6.214;2023-08-06T00:46:28;14.00;99.90
62339;DHT22;48368;53.406;6.214;2023-08-06T00:48:54;14.00;99.90
62339;DHT22;48368;53.406;6.214;2023-08-06T00:51:21;13.90;99.90
62339;DHT22;48368;53.406;6.214;2023-08-06T00:53:49;13.90;99.90
62339;DHT22;48368;53.406;6.214;2023-08-06T00:56:15;13.90;99.90
62339;DHT22;48368;53.406;6.214;2023-08-06T00:58:41;14.00;99.90
62339;DHT22;48368;53.406;6.214;2023-08-06T01:01:09;13.90;99.90
62339;DHT22;48368;53.406;6.214;2023-08-06T01:03:35;14.00;99.90
62339;DHT22;48368;53.406;6.214;2023-08-06T01:06:01;14.00;99.90
62339;DHT22;48368;53.406;6.214;2023-08-06T01:11:16;14.00;99.90
62339;DHT22;48368;53.406;6.214;2023-08-06T01:13:46;14.00;99.90
62339;DHT22;48368;53.406;6.214;2023-08-06T01:16:18;14.00;99.90
62339;DHT22;48368;53.406;6.214;2023-08-06T01:18:44;14.00;99.90
62339;DHT22;48368;53.406;6.214;2023-08-06T01:21:15;13.90;99.90
62339;DHT22;48368;53.406;6.214;2023-08-06T01:23:42;14.00;99.90
62339;DHT22;48368;53.406;6.214;2023-08-06T01:31:35;14.00;99.90
62339;DHT22;48368;53.406;6.214;2023-08-06T01:34:05;14.00;99.90
62339;DHT22;48368;53.406;6.214;2023-08-06T01:36:31;14.00;99.90
62339;DHT22;48368;53.406;6.214;2023-08-06T01:38:57;14.00;99.90
62339;DHT22;48368;53.406;6.214;2023-08-06T01:41:23;14.00;99.90
62339;DHT22;48368;53.406;6.214;2023-08-06T01:43:49;13.90;99.90
62339;DHT22;48368;53.406;6.214;2023-08-06T01:46:14;14.00;99.90
62339;DHT22;48368;53.406;6.214;2023-08-06T01:48:40;13.90;99.90
62339;DHT22;48368;53.406;6.214;2023-08-06T01:51:06;14.00;99.90
62339;DHT22;48368;53.406;6.214;2023-08-06T01:53:32;13.90;99.90
62339;DHT22;48368;53.406;6.214;2023-08-06T01:55:58;14.00;99.90
62339;DHT22;48368;53.406;6.214;2023-08-06T01:58:24;14.00;99.90
62339;DHT22;48368;53.406;6.214;2023-08-06T02:00:49;14.00;99.90
62339;DHT22;48368;53.406;6.214;2023-08-06T02:03:15;13.90;99.90
62339;DHT22;48368;53.406;6.214;2023-08-06T02:05:41;13.90;99.90
62339;DHT22;48368;53.406;6.214;2023-08-06T02:08:07;13.90;99.90
62339;DHT22;48368;53.406;6.214;2023-08-06T02:10:33;13.90;99.90
62339;DHT22;48368;53.406;6.214;2023-08-06T02:13:01;13.90;99.90
62339;DHT22;48368;53.406;6.214;2023-08-06T02:15:27;13.80;99.90
62339;DHT22;48368;53.406;6.214;2023-08-06T02:17:53;13.90;99.90
62339;DHT22;48368;53.406;6.214;2023-08-06T02:20:18;13.90;99.90
62339;DHT22;48368;53.406;6.214;2023-08-06T02:22:44;13.80;99.90
62339;DHT22;48368;53.406;6.214;2023-08-06T02:25:09;13.80;99.90
62339;DHT22;48368;53.406;6.214;2023-08-06T02:27:35;13.90;99.90
62339;DHT22;48368;53.406;6.214;2023-08-06T02:30:02;13.80;99.90
62339;DHT22;48368;53.406;6.214;2023-08-06T02:32:30;13.70;99.90
62339;DHT22;48368;53.406;6.214;2023-08-06T02:34:57;13.90;99.90
62339;DHT22;48368;53.406;6.214;2023-08-06T02:37:22;13.80;99.90
62339;DHT22;48368;53.406;6.214;2023-08-06T02:39:48;13.90;99.90
62339;DHT22;48368;53.406;6.214;2023-08-06T02:42:14;13.80;99.90
62339;DHT22;48368;53.406;6.214;2023-08-06T02:44:39;13.80;99.90
62339;DHT22;48368;53.406;6.214;2023-08-06T02:47:05;13.80;99.90
62339;DHT22;48368;53.406;6.214;2023-08-06T02:49:31;13.90;99.90
62339;DHT22;48368;53.406;6.214;2023-08-06T02:51:56;13.90;99.90
62339;DHT22;48368;53.406;6.214;2023-08-06T02:54:22;13.90;99.90
62339;DHT22;48368;53.406;6.214;2023-08-06T02:56:48;13.90;99.90
62339;DHT22;48368;53.406;6.214;2023-08-06T02:59:13;13.90;99.90
62339;DHT22;48368;53.406;6.214;2023-08-06T03:01:39;13.90;99.90
62339;DHT22;48368;53.406;6.214;2023-08-06T03:04:05;13.90;99.90
62339;DHT22;48368;53.406;6.214;2023-08-06T03:06:31;13.90;99.90
62339;DHT22;48368;53.406;6.214;2023-08-06T03:08:57;13.90;99.90
62339;DHT22;48368;53.406;6.214;2023-08-06T03:11:22;13.90;99.90
62339;DHT22;48368;53.406;6.214;2023-08-06T03:13:48;13.90;99.90
62339;DHT22;48368;53.406;6.214;2023-08-06T03:16:14;13.90;99.90
62339;DHT22;48368;53.406;6.214;2023-08-06T03:18:42;13.80;99.90
62339;DHT22;48368;53.406;6.214;2023-08-06T03:21:08;13.80;99.90
62339;DHT22;48368;53.406;6.214;2023-08-06T03:23:33;13.80;99.90
62339;DHT22;48368;53.406;6.214;2023-08-06T03:26:02;13.80;99.90
62339;DHT22;48368;53.406;6.214;2023-08-06T03:28:28;13.80;99.90
62339;DHT22;48368;53.406;6.214;2023-08-06T03:31:03;13.80;99.90
62339;DHT22;48368;53.406;6.214;2023-08-06T03:33:29;13.80;99.90
62339;DHT22;48368;53.406;6.214;2023-08-06T03:35:55;13.90;99.90
62339;DHT22;48368;53.406;6.214;2023-08-06T03:38:21;13.90;99.90
62339;DHT22;48368;53.406;6.214;2023-08-06T03:40:48;13.80;99.90
62339;DHT22;48368;53.406;6.214;2023-08-06T03:43:13;13.80;99.90
62339;DHT22;48368;53.406;6.214;2023-08-06T03:45:40;13.80;99.90
62339;DHT22;48368;53.406;6.214;2023-08-06T03:48:06;13.90;99.90
62339;DHT22;48368;53.406;6.214;2023-08-06T03:50:31;13.90;99.90
62339;DHT22;48368;53.406;6.214;2023-08-06T03:52:57;13.90;99.90
62339;DHT22;48368;53.406;6.214;2023-08-06T03:55:22;13.80;99.90
62339;DHT22;48368;53.406;6.214;2023-08-06T03:57:48;13.90;99.90
62339;DHT22;48368;53.406;6.214;2023-08-06T04:00:14;13.90;99.90
62339;DHT22;48368;53.406;6.214;2023-08-06T04:02:39;13.80;99.90
62339;DHT22;48368;53.406;6.214;2023-08-06T04:05:05;13.90;99.90
62339;DHT22;48368;53.406;6.214;2023-08-06T04:07:31;13.80;99.90
62339;DHT22;48368;53.406;6.214;2023-08-06T04:10:04;13.90;99.90
62339;DHT22;48368;53.406;6.214;2023-08-06T04:12:30;13.90;99.90
62339;DHT22;48368;53.406;6.214;2023-08-06T04:14:58;13.80;99.90
62339;DHT22;48368;53.406;6.214;2023-08-06T04:17:24;13.90;99.90
62339;DHT22;48368;53.406;6.214;2023-08-06T04:19:51;13.90;99.90
62339;DHT22;48368;53.406;6.214;2023-08-06T04:22:18;13.80;99.90
62339;DHT22;48368;53.406;6.214;2023-08-06T04:24:44;13.80;99.90
62339;DHT22;48368;53.406;6.214;2023-08-06T04:27:10;13.90;99.90
62339;DHT22;48368;53.406;6.214;2023-08-06T04:29:36;13.90;99.90
62339;DHT22;48368;53.406;6.214;2023-08-06T04:32:05;13.90;99.90
62339;DHT22;48368;53.406;6.214;2023-08-06T04:34:30;13.90;99.90
62339;DHT22;48368;53.406;6.214;2023-08-06T04:36:56;13.90;99.90
62339;DHT22;48368;53.406;6.214;2023-08-06T04:39:22;13.90;99.90
62339;DHT22;48368;53.406;6.214;2023-08-06T04:41:47;13.90;99.90
62339;DHT22;48368;53.406;6.214;2023-08-06T04:44:13;13.90;99.90
62339;DHT22;48368;53.406;6.214;2023-08-06T04:46:38;14.00;99.90
62339;DHT22;48368;53.406;6.214;2023-08-06T04:49:07;14.00;99.90
62339;DHT22;48368;53.406;6.214;2023-08-06T04:51:35;13.90;99.90
62339;DHT22;48368;53.406;6.214;2023-08-06T04:54:01;14.00;99.90
62339;DHT22;48368;53.406;6.214;2023-08-06T04:56:27;14.10;99.90
62339;DHT22;48368;53.406;6.214;2023-08-06T04:58:53;14.00;99.90
62339;DHT22;48368;53.406;6.214;2023-08-06T05:01:18;14.10;99.90
62339;DHT22;48368;53.406;6.214;2023-08-06T05:03:44;14.10;99.90
62339;DHT22;48368;53.406;6.214;2023-08-06T05:06:10;14.20;99.90
62339;DHT22;48368;53.406;6.214;2023-08-06T05:08:36;14.10;99.90
62339;DHT22;48368;53.406;6.214;2023-08-06T05:11:02;14.20;99.90
62339;DHT22;48368;53.406;6.214;2023-08-06T05:13:28;14.20;99.90
62339;DHT22;48368;53.406;6.214;2023-08-06T05:15:56;14.20;99.90
62339;DHT22;48368;53.406;6.214;2023-08-06T05:18:22;14.20;99.90
62339;DHT22;48368;53.406;6.214;2023-08-06T05:20:47;14.20;99.90
62339;DHT22;48368;53.406;6.214;2023-08-06T05:23:16;14.30;99.90
62339;DHT22;48368;53.406;6.214;2023-08-06T05:25:42;14.30;99.90
62339;DHT22;48368;53.406;6.214;2023-08-06T05:28:10;14.30;99.90
62339;DHT22;48368;53.406;6.214;2023-08-06T05:30:39;14.30;99.90
62339;DHT22;48368;53.406;6.214;2023-08-06T05:33:05;14.40;99.90
62339;DHT22;48368;53.406;6.214;2023-08-06T05:35:30;14.30;99.90
62339;DHT22;48368;53.406;6.214;2023-08-06T05:37:56;14.40;99.90
62339;DHT22;48368;53.406;6.214;2023-08-06T05:40:22;14.40;99.90
62339;DHT22;48368;53.406;6.214;2023-08-06T05:42:47;14.40;99.90
62339;DHT22;48368;53.406;6.214;2023-08-06T05:45:13;14.40;99.90
62339;DHT22;48368;53.406;6.214;2023-08-06T05:47:39;14.40;99.90
62339;DHT22;48368;53.406;6.214;2023-08-06T05:50:05;14.50;99.90
62339;DHT22;48368;53.406;6.214;2023-08-06T05:52:31;14.50;99.90
62339;DHT22;48368;53.406;6.214;2023-08-06T05:54:56;14.50;99.90
62339;DHT22;48368;53.406;6.214;2023-08-06T05:57:22;14.60;99.90
62339;DHT22;48368;53.406;6.214;2023-08-06T05:59:47;14.70;99.90
62339;DHT22;48368;53.406;6.214;2023-08-06T06:02:22;14.70;99.90
62339;DHT22;48368;53.406;6.214;2023-08-06T06:04:48;14.70;99.90
62339;DHT22;48368;53.406;6.214;2023-08-06T06:07:13;14.80;99.90
62339;DHT22;48368;53.406;6.214;2023-08-06T06:09:40;14.80;99.90
62339;DHT22;48368;53.406;6.214;2023-08-06T06:12:06;14.80;99.90
62339;DHT22;48368;53.406;6.214;2023-08-06T06:14:32;14.80;99.90
62339;DHT22;48368;53.406;6.214;2023-08-06T06:16:59;14.90;99.90
62339;DHT22;48368;53.406;6.214;2023-08-06T06:19:35;14.90;99.90
62339;DHT22;48368;53.406;6.214;2023-08-06T06:22:01;14.90;99.90
62339;DHT22;48368;53.406;6.214;2023-08-06T06:24:26;14.90;99.90
62339;DHT22;48368;53.406;6.214;2023-08-06T06:26:52;14.90;99.90
62339;DHT22;48368;53.406;6.214;2023-08-06T06:29:17;14.80;99.90
62339;DHT22;48368;53.406;6.214;2023-08-06T06:31:43;15.00;99.90
62339;DHT22;48368;53.406;6.214;2023-08-06T06:34:12;15.00;99.90
62339;DHT22;48368;53.406;6.214;2023-08-06T06:36:37;15.00;99.90
62339;DHT22;48368;53.406;6.214;2023-08-06T06:39:03;15.10;99.90
62339;DHT22;48368;53.406;6.214;2023-08-06T06:41:28;15.10;99.90
62339;DHT22;48368;53.406;6.214;2023-08-06T06:43:56;15.20;99.90
62339;DHT22;48368;53.406;6.214;2023-08-06T06:46:22;15.30;99.90
62339;DHT22;48368;53.406;6.214;2023-08-06T06:48:48;15.30;99.90
62339;DHT22;48368;53.406;6.214;2023-08-06T06:51:13;15.40;99.90
62339;DHT22;48368;53.406;6.214;2023-08-06T06:53:39;15.40;99.90
62339;DHT22;48368;53.406;6.214;2023-08-06T06:56:05;15.50;99.90
62339;DHT22;48368;53.406;6.214;2023-08-06T06:58:31;15.60;99.90
62339;DHT22;48368;53.406;6.214;2023-08-06T07:01:17;15.60;99.90
62339;DHT22;48368;53.406;6.214;2023-08-06T07:03:43;15.60;99.90
62339;DHT22;48368;53.406;6.214;2023-08-06T07:06:09;15.80;99.90
62339;DHT22;48368;53.406;6.214;2023-08-06T07:08:34;15.80;99.90
62339;DHT22;48368;53.406;6.214;2023-08-06T07:11:05;15.90;99.90
62339;DHT22;48368;53.406;6.214;2023-08-06T07:13:34;16.00;99.90
62339;DHT22;48368;53.406;6.214;2023-08-06T07:16:00;16.10;99.90
62339;DHT22;48368;53.406;6.214;2023-08-06T07:18:26;16.20;99.90
62339;DHT22;48368;53.406;6.214;2023-08-06T07:20:52;16.40;99.90
62339;DHT22;48368;53.406;6.214;2023-08-06T07:23:21;16.50;99.90
62339;DHT22;48368;53.406;6.214;2023-08-06T07:25:47;16.70;99.90
62339;DHT22;48368;53.406;6.214;2023-08-06T07:28:16;16.70;99.90
62339;DHT22;48368;53.406;6.214;2023-08-06T07:30:48;16.90;99.90
62339;DHT22;48368;53.406;6.214;2023-08-06T07:33:14;17.10;99.90
62339;DHT22;48368;53.406;6.214;2023-08-06T07:35:40;17.30;99.90
62339;DHT22;48368;53.406;6.214;2023-08-06T07:38:06;17.40;99.90
62339;DHT22;48368;53.406;6.214;2023-08-06T07:40:31;17.60;99.90
62339;DHT22;48368;53.406;6.214;2023-08-06T07:42:57;17.70;99.90
62339;DHT22;48368;53.406;6.214;2023-08-06T07:45:23;17.90;99.90
62339;DHT22;48368;53.406;6.214;2023-08-06T07:47:52;18.10;99.90
62339;DHT22;48368;53.406;6.214;2023-08-06T07:50:17;18.30;99.90
62339;DHT22;48368;53.406;6.214;2023-08-06T07:52:53;18.40;99.90
62339;DHT22;48368;53.406;6.214;2023-08-06T07:55:19;18.40;99.90
62339;DHT22;48368;53.406;6.214;2023-08-06T07:57:47;18.40;99.90
62339;DHT22;48368;53.406;6.214;2023-08-06T08:00:13;18.50;99.90
62339;DHT22;48368;53.406;6.214;2023-08-06T08:02:41;18.60;99.90
62339;DHT22;48368;53.406;6.214;2023-08-06T08:05:07;18.80;99.90
62339;DHT22;48368;53.406;6.214;2023-08-06T08:07:33;18.80;99.90
62339;DHT22;48368;53.406;6.214;2023-08-06T08:09:59;19.00;99.90
62339;DHT22;48368;53.406;6.214;2023-08-06T08:12:25;19.20;99.90
62339;DHT22;48368;53.406;6.214;2023-08-06T08:14:50;19.20;99.90
62339;DHT22;48368;53.406;6.214;2023-08-06T08:17:16;19.20;99.90
62339;DHT22;48368;53.406;6.214;2023-08-06T08:19:45;19.50;99.90
62339;DHT22;48368;53.406;6.214;2023-08-06T08:22:10;19.50;99.90
62339;DHT22;48368;53.406;6.214;2023-08-06T08:24:36;19.40;99.90
62339;DHT22;48368;53.406;6.214;2023-08-06T08:27:02;19.50;99.90
62339;DHT22;48368;53.406;6.214;2023-08-06T08:29:27;19.30;99.90
62339;DHT22;48368;53.406;6.214;2023-08-06T08:31:53;19.10;99.90
62339;DHT22;48368;53.406;6.214;2023-08-06T08:34:18;19.40;99.90
62339;DHT22;48368;53.406;6.214;2023-08-06T08:36:44;19.40;99.90
62339;DHT22;48368;53.406;6.214;2023-08-06T08:39:13;19.50;99.90
62339;DHT22;48368;53.406;6.214;2023-08-06T08:41:39;19.60;99.90
62339;DHT22;48368;53.406;6.214;2023-08-06T08:44:09;19.70;99.90
62339;DHT22;48368;53.406;6.214;2023-08-06T08:46:36;19.50;99.90
62339;DHT22;48368;53.406;6.214;2023-08-06T08:49:04;19.40;99.90
62339;DHT22;48368;53.406;6.214;2023-08-06T08:51:30;19.50;99.90
62339;DHT22;48368;53.406;6.214;2023-08-06T08:53:57;19.50;99.90
62339;DHT22;48368;53.406;6.214;2023-08-06T08:56:23;19.50;99.90
62339;DHT22;48368;53.406;6.214;2023-08-06T08:58:49;19.30;99.90
62339;DHT22;48368;53.406;6.214;2023-08-06T09:01:15;19.40;99.90
62339;DHT22;48368;53.406;6.214;2023-08-06T09:03:44;19.50;99.90
62339;DHT22;48368;53.406;6.214;2023-08-06T09:06:11;19.60;99.90
62339;DHT22;48368;53.406;6.214;2023-08-06T09:08:43;19.50;99.90
62339;DHT22;48368;53.406;6.214;2023-08-06T09:11:12;19.50;99.90
62339;DHT22;48368;53.406;6.214;2023-08-06T09:13:38;19.50;99.90
62339;DHT22;48368;53.406;6.214;2023-08-06T09:16:05;19.50;99.90
62339;DHT22;48368;53.406;6.214;2023-08-06T09:18:31;19.50;99.90
62339;DHT22;48368;53.406;6.214;2023-08-06T09:20:57;19.70;99.90
62339;DHT22;48368;53.406;6.214;2023-08-06T09:23:31;19.70;99.90
62339;DHT22;48368;53.406;6.214;2023-08-06T09:25:57;19.50;99.90
62339;DHT22;48368;53.406;6.214;2023-08-06T09:28:23;19.50;99.90
62339;DHT22;48368;53.406;6.214;2023-08-06T09:30:50;19.50;99.90
62339;DHT22;48368;53.406;6.214;2023-08-06T09:33:22;19.50;99.90
62339;DHT22;48368;53.406;6.214;2023-08-06T09:35:48;19.50;99.90
62339;DHT22;48368;53.406;6.214;2023-08-06T09:38:14;19.40;99.90
62339;DHT22;48368;53.406;6.214;2023-08-06T09:40:40;19.50;99.90
62339;DHT22;48368;53.406;6.214;2023-08-06T09:43:06;19.60;99.90
62339;DHT22;48368;53.406;6.214;2023-08-06T09:45:37;19.70;99.90
62339;DHT22;48368;53.406;6.214;2023-08-06T09:48:04;19.80;99.90
62339;DHT22;48368;53.406;6.214;2023-08-06T09:50:31;20.10;99.90
62339;DHT22;48368;53.406;6.214;2023-08-06T09:52:58;20.10;99.90
62339;DHT22;48368;53.406;6.214;2023-08-06T09:55:25;20.20;99.90
62339;DHT22;48368;53.406;6.214;2023-08-06T09:57:52;20.40;99.90
62339;DHT22;48368;53.406;6.214;2023-08-06T10:00:18;20.40;99.90
62339;DHT22;48368;53.406;6.214;2023-08-06T10:02:45;20.50;99.90
62339;DHT22;48368;53.406;6.214;2023-08-06T10:05:11;20.40;99.90
62339;DHT22;48368;53.406;6.214;2023-08-06T10:07:37;20.50;99.90
62339;DHT22;48368;53.406;6.214;2023-08-06T10:10:07;20.60;99.90
62339;DHT22;48368;53.406;6.214;2023-08-06T10:12:59;20.60;99.90
62339;DHT22;48368;53.406;6.214;2023-08-06T10:15:30;20.70;99.90
62339;DHT22;48368;53.406;6.214;2023-08-06T10:17:58;20.80;99.90
62339;DHT22;48368;53.406;6.214;2023-08-06T10:20:25;20.80;99.90
62339;DHT22;48368;53.406;6.214;2023-08-06T10:23:04;20.80;99.90
62339;DHT22;48368;53.406;6.214;2023-08-06T10:25:32;20.90;99.90
62339;DHT22;48368;53.406;6.214;2023-08-06T10:28:11;20.90;99.90
62339;DHT22;48368;53.406;6.214;2023-08-06T10:30:49;21.00;99.90
62339;DHT22;48368;53.406;6.214;2023-08-06T10:33:19;21.10;99.90
62339;DHT22;48368;53.406;6.214;2023-08-06T10:35:49;21.10;99.90
62339;DHT22;48368;53.406;6.214;2023-08-06T10:38:20;21.20;99.90
62339;DHT22;48368;53.406;6.214;2023-08-06T10:43:36;21.20;99.90
62339;DHT22;48368;53.406;6.214;2023-08-06T10:46:08;21.40;99.90
62339;DHT22;48368;53.406;6.214;2023-08-06T10:48:36;21.50;99.90
62339;DHT22;48368;53.406;6.214;2023-08-06T10:51:02;21.50;99.90
62339;DHT22;48368;53.406;6.214;2023-08-06T10:53:28;21.50;99.90
62339;DHT22;48368;53.406;6.214;2023-08-06T10:55:54;21.70;99.90
62339;DHT22;48368;53.406;6.214;2023-08-06T10:58:19;22.00;99.90
62339;DHT22;48368;53.406;6.214;2023-08-06T11:00:46;22.10;99.90
62339;DHT22;48368;53.406;6.214;2023-08-06T11:03:11;22.00;99.90
62339;DHT22;48368;53.406;6.214;2023-08-06T11:05:37;21.70;99.90
62339;DHT22;48368;53.406;6.214;2023-08-06T11:08:03;21.70;99.90
62339;DHT22;48368;53.406;6.214;2023-08-06T11:10:28;21.90;99.90
62339;DHT22;48368;53.406;6.214;2023-08-06T11:13:01;21.80;99.90
62339;DHT22;48368;53.406;6.214;2023-08-06T11:15:26;21.90;99.90
62339;DHT22;48368;53.406;6.214;2023-08-06T11:17:52;21.90;99.90
62339;DHT22;48368;53.406;6.214;2023-08-06T11:20:20;21.90;99.90
62339;DHT22;48368;53.406;6.214;2023-08-06T11:22:47;21.90;99.90
62339;DHT22;48368;53.406;6.214;2023-08-06T11:25:13;21.90;99.90
62339;DHT22;48368;53.406;6.214;2023-08-06T11:27:38;21.90;99.90
62339;DHT22;48368;53.406;6.214;2023-08-06T11:30:05;21.90;99.90
62339;DHT22;48368;53.406;6.214;2023-08-06T11:32:34;21.90;99.90
62339;DHT22;48368;53.406;6.214;2023-08-06T11:35:13;21.70;99.90
62339;DHT22;48368;53.406;6.214;2023-08-06T11:37:45;21.70;99.90
62339;DHT22;48368;53.406;6.214;2023-08-06T11:40:11;21.50;99.90
62339;DHT22;48368;53.406;6.214;2023-08-06T11:42:39;21.60;99.90
62339;DHT22;48368;53.406;6.214;2023-08-06T11:45:05;21.70;99.90
62339;DHT22;48368;53.406;6.214;2023-08-06T11:47:31;21.70;99.90
62339;DHT22;48368;53.406;6.214;2023-08-06T11:49:57;21.70;99.90
62339;DHT22;48368;53.406;6.214;2023-08-06T11:52:24;21.80;99.90
62339;DHT22;48368;53.406;6.214;2023-08-06T11:55:08;21.90;99.90
62339;DHT22;48368;53.406;6.214;2023-08-06T11:57:38;22.00;99.90
62339;DHT22;48368;53.406;6.214;2023-08-06T12:00:12;22.10;99.90
62339;DHT22;48368;53.406;6.214;2023-08-06T12:02:39;22.20;99.90
62339;DHT22;48368;53.406;6.214;2023-08-06T12:05:10;22.10;99.90
62339;DHT22;48368;53.406;6.214;2023-08-06T12:07:38;22.30;99.90
62339;DHT22;48368;53.406;6.214;2023-08-06T12:10:05;22.20;99.90
62339;DHT22;48368;53.406;6.214;2023-08-06T12:12:30;22.30;99.90
62339;DHT22;48368;53.406;6.214;2023-08-06T12:14:58;22.40;99.90
62339;DHT22;48368;53.406;6.214;2023-08-06T12:17:24;22.50;99.90
62339;DHT22;48368;53.406;6.214;2023-08-06T12:19:50;22.60;99.90
62339;DHT22;48368;53.406;6.214;2023-08-06T12:22:16;22.60;99.90
62339;DHT22;48368;53.406;6.214;2023-08-06T12:24:43;22.70;99.90
62339;DHT22;48368;53.406;6.214;2023-08-06T12:27:09;22.70;99.90
62339;DHT22;48368;53.406;6.214;2023-08-06T12:29:35;22.60;99.90
62339;DHT22;48368;53.406;6.214;2023-08-06T12:32:01;22.70;99.90
62339;DHT22;48368;53.406;6.214;2023-08-06T12:34:27;22.60;99.90
62339;DHT22;48368;53.406;6.214;2023-08-06T12:36:53;22.60;99.90
62339;DHT22;48368;53.406;6.214;2023-08-06T12:39:18;22.60;99.90
62339;DHT22;48368;53.406;6.214;2023-08-06T12:41:44;22.60;99.90
62339;DHT22;48368;53.406;6.214;2023-08-06T12:44:12;22.40;99.90
62339;DHT22;48368;53.406;6.214;2023-08-06T12:46:40;22.50;99.90
62339;DHT22;48368;53.406;6.214;2023-08-06T12:49:06;22.60;99.90
62339;DHT22;48368;53.406;6.214;2023-08-06T12:51:32;22.80;99.90
62339;DHT22;48368;53.406;6.214;2023-08-06T12:53:59;22.70;99.90
62339;DHT22;48368;53.406;6.214;2023-08-06T12:56:25;22.70;99.90
62339;DHT22;48368;53.406;6.214;2023-08-06T12:58:50;22.70;99.90
62339;DHT22;48368;53.406;6.214;2023-08-06T13:01:16;22.90;99.90
62339;DHT22;48368;53.406;6.214;2023-08-06T13:03:41;22.90;99.90
62339;DHT22;48368;53.406;6.214;2023-08-06T13:06:07;22.80;99.90
62339;DHT22;48368;53.406;6.214;2023-08-06T13:08:35;22.90;99.90
62339;DHT22;48368;53.406;6.214;2023-08-06T13:11:01;22.80;99.90
62339;DHT22;48368;53.406;6.214;2023-08-06T13:13:27;22.90;99.90
62339;DHT22;48368;53.406;6.214;2023-08-06T13:15:52;23.00;99.90
62339;DHT22;48368;53.406;6.214;2023-08-06T13:18:18;23.00;99.90
62339;DHT22;48368;53.406;6.214;2023-08-06T13:20:44;23.10;99.90
62339;DHT22;48368;53.406;6.214;2023-08-06T13:23:21;23.10;99.90
62339;DHT22;48368;53.406;6.214;2023-08-06T13:25:46;23.10;99.90
62339;DHT22;48368;53.406;6.214;2023-08-06T13:28:12;23.10;99.90
62339;DHT22;48368;53.406;6.214;2023-08-06T13:30:39;23.30;99.90
62339;DHT22;48368;53.406;6.214;2023-08-06T13:33:08;23.40;99.90
62339;DHT22;48368;53.406;6.214;2023-08-06T13:35:33;23.40;99.90
62339;DHT22;48368;53.406;6.214;2023-08-06T13:38:06;23.30;99.90
62339;DHT22;48368;53.406;6.214;2023-08-06T13:40:35;23.30;99.90
62339;DHT22;48368;53.406;6.214;2023-08-06T13:43:01;23.20;99.90
62339;DHT22;48368;53.406;6.214;2023-08-06T13:45:27;23.30;99.90
62339;DHT22;48368;53.406;6.214;2023-08-06T13:47:52;23.30;99.90
62339;DHT22;48368;53.406;6.214;2023-08-06T13:50:18;23.30;99.90
62339;DHT22;48368;53.406;6.214;2023-08-06T13:52:52;23.20;99.90
62339;DHT22;48368;53.406;6.214;2023-08-06T13:55:19;23.10;99.90
62339;DHT22;48368;53.406;6.214;2023-08-06T13:57:45;23.10;99.90
62339;DHT22;48368;53.406;6.214;2023-08-06T14:00:11;23.40;99.90
62339;DHT22;48368;53.406;6.214;2023-08-06T14:02:37;23.30;99.90
62339;DHT22;48368;53.406;6.214;2023-08-06T14:05:05;23.30;99.90
62339;DHT22;48368;53.406;6.214;2023-08-06T14:07:31;23.40;99.90
62339;DHT22;48368;53.406;6.214;2023-08-06T14:10:03;23.30;99.90
62339;DHT22;48368;53.406;6.214;2023-08-06T14:13:00;23.10;99.90
62339;DHT22;48368;53.406;6.214;2023-08-06T14:15:26;23.20;99.90
62339;DHT22;48368;53.406;6.214;2023-08-06T14:17:51;23.10;99.90
62339;DHT22;48368;53.406;6.214;2023-08-06T14:20:29;23.20;99.90
62339;DHT22;48368;53.406;6.214;2023-08-06T14:26:38;23.10;99.90
62339;DHT22;48368;53.406;6.214;2023-08-06T14:29:13;23.20;99.90
62339;DHT22;48368;53.406;6.214;2023-08-06T14:31:41;23.20;99.90
62339;DHT22;48368;53.406;6.214;2023-08-06T14:34:10;23.20;99.90
62339;DHT22;48368;53.406;6.214;2023-08-06T14:36:36;23.10;99.90
62339;DHT22;48368;53.406;6.214;2023-08-06T14:39:01;23.10;99.90
62339;DHT22;48368;53.406;6.214;2023-08-06T14:41:27;23.00;99.90
62339;DHT22;48368;53.406;6.214;2023-08-06T14:43:56;23.10;99.90
62339;DHT22;48368;53.406;6.214;2023-08-06T14:46:21;23.10;99.90
62339;DHT22;48368;53.406;6.214;2023-08-06T14:48:47;23.00;99.90
62339;DHT22;48368;53.406;6.214;2023-08-06T14:51:13;23.10;99.90
62339;DHT22;48368;53.406;6.214;2023-08-06T14:53:41;23.20;99.90
62339;DHT22;48368;53.406;6.214;2023-08-06T14:56:08;23.10;99.90
62339;DHT22;48368;53.406;6.214;2023-08-06T14:58:34;23.10;99.90
62339;DHT22;48368;53.406;6.214;2023-08-06T15:01:00;23.10;99.90
62339;DHT22;48368;53.406;6.214;2023-08-06T15:03:26;22.90;99.90
62339;DHT22;48368;53.406;6.214;2023-08-06T15:05:56;23.00;99.90
62339;DHT22;48368;53.406;6.214;2023-08-06T15:08:24;22.80;99.90
62339;DHT22;48368;53.406;6.214;2023-08-06T15:10:51;22.70;99.90
62339;DHT22;48368;53.406;6.214;2023-08-06T15:13:17;22.70;99.90
62339;DHT22;48368;53.406;6.214;2023-08-06T15:15:49;22.60;99.90
62339;DHT22;48368;53.406;6.214;2023-08-06T15:18:15;22.80;99.90
62339;DHT22;48368;53.406;6.214;2023-08-06T15:20:41;22.50;99.90
62339;DHT22;48368;53.406;6.214;2023-08-06T15:23:07;22.50;99.90
62339;DHT22;48368;53.406;6.214;2023-08-06T15:25:32;22.50;99.90
62339;DHT22;48368;53.406;6.214;2023-08-06T15:27:58;22.50;99.90
62339;DHT22;48368;53.406;6.214;2023-08-06T15:30:23;22.50;99.90
62339;DHT22;48368;53.406;6.214;2023-08-06T15:32:49;22.40;99.90
62339;DHT22;48368;53.406;6.214;2023-08-06T15:35:15;22.60;99.90
62339;DHT22;48368;53.406;6.214;2023-08-06T15:37:52;22.60;99.90
62339;DHT22;48368;53.406;6.214;2023-08-06T15:40:18;22.50;99.90
62339;DHT22;48368;53.406;6.214;2023-08-06T15:42:44;22.40;99.90